CheckWX is a tool to help pilots better visualize weather data.  It is not intended as a substitute for an official pre-flight weather briefing.

02:11:13 UTC

CYEG METAR
Edmonton International Airport
Edmonton, Alberta, Canada
Current

11 mins ago

CYEG 180200Z 00000KT 20SM FEW090 BKN110 BKN200 M25/M27 A3044 RMK AC2AC3CI2 SLP390
Observed
Feb-18 @ 02:00 UTC
Visibility
20 SM
Flight Rules
VFR
Cloud Levels
  • Few at 9,000' AGL
  • Broken at 11,000' AGL
  • Broken at 20,000' AGL
Temperature
-25°C / -13°F
Dewpoint
-27°C / -17°F
Humidity
83%
Altimeter
30.44" Hg
Pressure
1039 hPa
Previous

1 hour ago

CYEG 180100Z 36004KT 20SM FEW120 BKN240 M22/M26 A3044 RMK AC2CI4 SLP388
Observed
Feb-18 @ 01:00 UTC
Wind
  • 360° at 4 KTS
Visibility
20 SM
Flight Rules
VFR
Cloud Levels
  • Few at 12,000' AGL
  • Broken at 24,000' AGL
Temperature
-22°C / -8°F
Dewpoint
-26°C / -15°F
Humidity
70%
Altimeter
30.44" Hg
Pressure
1038.8 hPa
Previous

2 hours ago

CYEG 180000Z 01005KT 20SM FEW018 SCT120 BKN230 M19/M24 A3044 RMK CF1AC3CI3 CF TR SLP386
Observed
Feb-18 @ 00:00 UTC
Wind
  • 010° at 5 KTS
Visibility
20 SM
Flight Rules
VFR
Cloud Levels
  • Few at 1,800' AGL
  • Scattered at 12,000' AGL
  • Broken at 23,000' AGL
Temperature
-19°C / -2°F
Dewpoint
-24°C / -11°F
Humidity
65%
Altimeter
30.44" Hg
Pressure
1038.6 hPa